sensor_id;sensor_type;location;lat;lon;timestamp;pressure;altitude;pressure_sealevel;temperature;humidity
17230;BME280;8731;50.364;8.958;2023-02-28T00:00:55;101268.75;;;2.28;67.72
17230;BME280;8731;50.364;8.958;2023-02-28T00:05:21;101277.31;;;2.12;68.31
17230;BME280;8731;50.364;8.958;2023-02-28T00:09:44;101269.59;;;2.05;67.61
17230;BME280;8731;50.364;8.958;2023-02-28T00:14:07;101268.47;;;2.03;67.72
17230;BME280;8731;50.364;8.958;2023-02-28T00:18:29;101267.13;;;1.99;68.34
17230;BME280;8731;50.364;8.958;2023-02-28T00:22:53;101266.75;;;1.91;68.78
17230;BME280;8731;50.364;8.958;2023-02-28T00:27:16;101280.91;;;1.84;68.37
17230;BME280;8731;50.364;8.958;2023-02-28T00:31:40;101278.88;;;1.82;69.17
17230;BME280;8731;50.364;8.958;2023-02-28T00:36:08;101272.56;;;1.67;67.33
17230;BME280;8731;50.364;8.958;2023-02-28T00:40:33;101273.97;;;1.54;69.11
17230;BME280;8731;50.364;8.958;2023-02-28T00:44:55;101277.19;;;1.53;68.03
17230;BME280;8731;50.364;8.958;2023-02-28T00:49:18;101275.84;;;1.44;67.43
17230;BME280;8731;50.364;8.958;2023-02-28T00:53:40;101278.38;;;1.33;69.58
17230;BME280;8731;50.364;8.958;2023-02-28T00:58:04;101283.00;;;1.24;68.54
17230;BME280;8731;50.364;8.958;2023-02-28T01:02:26;101280.94;;;1.16;68.34
17230;BME280;8731;50.364;8.958;2023-02-28T01:06:48;101285.53;;;1.07;69.23
17230;BME280;8731;50.364;8.958;2023-02-28T01:11:12;101280.72;;;1.09;68.75
17230;BME280;8731;50.364;8.958;2023-02-28T01:15:41;101279.38;;;1.05;68.21
17230;BME280;8731;50.364;8.958;2023-02-28T01:20:08;101276.44;;;0.97;65.92
17230;BME280;8731;50.364;8.958;2023-02-28T01:24:32;101285.06;;;0.93;68.18
17230;BME280;8731;50.364;8.958;2023-02-28T01:28:54;101276.66;;;0.87;68.94
17230;BME280;8731;50.364;8.958;2023-02-28T01:33:18;101282.59;;;0.82;68.51
17230;BME280;8731;50.364;8.958;2023-02-28T01:37:40;101283.50;;;0.82;69.27
17230;BME280;8731;50.364;8.958;2023-02-28T01:42:03;101275.78;;;0.75;69.58
17230;BME280;8731;50.364;8.958;2023-02-28T01:46:27;101276.91;;;0.66;68.57
17230;BME280;8731;50.364;8.958;2023-02-28T01:50:51;101268.03;;;0.57;69.93
17230;BME280;8731;50.364;8.958;2023-02-28T01:55:16;101265.31;;;0.55;70.49
17230;BME280;8731;50.364;8.958;2023-02-28T01:59:44;101265.09;;;0.48;68.30
17230;BME280;8731;50.364;8.958;2023-02-28T02:04:10;101260.72;;;0.47;69.33
17230;BME280;8731;50.364;8.958;2023-02-28T02:08:36;101255.28;;;0.44;69.40
17230;BME280;8731;50.364;8.958;2023-02-28T02:13:08;101245.94;;;0.43;69.90
17230;BME280;8731;50.364;8.958;2023-02-28T02:17:44;101246.84;;;0.38;70.80
17230;BME280;8731;50.364;8.958;2023-02-28T02:22:25;101247.53;;;0.32;70.17
17230;BME280;8731;50.364;8.958;2023-02-28T02:27:22;101241.16;;;0.34;69.86
17230;BME280;8731;50.364;8.958;2023-02-28T02:32:18;101240.50;;;0.29;70.15
17230;BME280;8731;50.364;8.958;2023-02-28T02:37:15;101247.06;;;0.23;71.03
17230;BME280;8731;50.364;8.958;2023-02-28T02:41:47;101237.06;;;0.17;70.70
17230;BME280;8731;50.364;8.958;2023-02-28T02:46:17;101245.69;;;0.14;71.22
17230;BME280;8731;50.364;8.958;2023-02-28T02:50:46;101239.56;;;0.12;72.03
17230;BME280;8731;50.364;8.958;2023-02-28T02:55:14;101237.97;;;0.07;71.86
17230;BME280;8731;50.364;8.958;2023-02-28T02:59:40;101247.97;;;0.01;71.77
17230;BME280;8731;50.364;8.958;2023-02-28T03:04:07;101251.81;;;-0.01;72.40
17230;BME280;8731;50.364;8.958;2023-02-28T03:08:36;101251.56;;;-0.08;72.60
17230;BME280;8731;50.364;8.958;2023-02-28T03:13:12;101250.22;;;-0.12;72.48
17230;BME280;8731;50.364;8.958;2023-02-28T03:18:01;101247.03;;;-0.16;72.67
17230;BME280;8731;50.364;8.958;2023-02-28T03:22:42;101245.66;;;-0.20;73.12
17230;BME280;8731;50.364;8.958;2023-02-28T03:27:18;101249.75;;;-0.20;73.25
17230;BME280;8731;50.364;8.958;2023-02-28T03:31:50;101247.44;;;-0.24;72.81
17230;BME280;8731;50.364;8.958;2023-02-28T03:36:20;101248.78;;;-0.32;73.56
17230;BME280;8731;50.364;8.958;2023-02-28T03:40:48;101250.16;;;-0.34;73.43
17230;BME280;8731;50.364;8.958;2023-02-28T03:45:16;101241.06;;;-0.34;72.61
17230;BME280;8731;50.364;8.958;2023-02-28T03:49:46;101246.50;;;-0.36;71.82
17230;BME280;8731;50.364;8.958;2023-02-28T03:54:17;101247.41;;;-0.41;72.19
17230;BME280;8731;50.364;8.958;2023-02-28T03:58:47;101262.88;;;-0.38;72.32
17230;BME280;8731;50.364;8.958;2023-02-28T04:03:14;101255.59;;;-0.42;71.94
17230;BME280;8731;50.364;8.958;2023-02-28T04:07:38;101256.50;;;-0.47;71.73
17230;BME280;8731;50.364;8.958;2023-02-28T04:12:00;101251.94;;;-0.44;71.84
17230;BME280;8731;50.364;8.958;2023-02-28T04:16:23;101255.81;;;-0.46;71.47
17230;BME280;8731;50.364;8.958;2023-02-28T04:20:45;101256.91;;;-0.50;71.29
17230;BME280;8731;50.364;8.958;2023-02-28T04:25:09;101256.50;;;-0.47;70.78
17230;BME280;8731;50.364;8.958;2023-02-28T04:29:31;101262.81;;;-0.49;71.58
17230;BME280;8731;50.364;8.958;2023-02-28T04:33:54;101260.13;;;-0.45;70.60
17230;BME280;8731;50.364;8.958;2023-02-28T04:38:16;101257.81;;;-0.49;71.38
17230;BME280;8731;50.364;8.958;2023-02-28T04:42:40;101257.88;;;-0.44;70.78
17230;BME280;8731;50.364;8.958;2023-02-28T04:47:02;101259.63;;;-0.48;71.78
17230;BME280;8731;50.364;8.958;2023-02-28T04:51:24;101259.16;;;-0.51;71.81
17230;BME280;8731;50.364;8.958;2023-02-28T04:55:47;101261.44;;;-0.58;71.85
17230;BME280;8731;50.364;8.958;2023-02-28T05:00:11;101260.75;;;-0.52;70.94
17230;BME280;8731;50.364;8.958;2023-02-28T05:04:36;101264.59;;;-0.59;72.29
17230;BME280;8731;50.364;8.958;2023-02-28T05:08:59;101272.56;;;-0.56;72.41
17230;BME280;8731;50.364;8.958;2023-02-28T05:13:21;101262.34;;;-0.52;70.25
17230;BME280;8731;50.364;8.958;2023-02-28T05:17:45;101276.50;;;-0.47;71.64
17230;BME280;8731;50.364;8.958;2023-02-28T05:22:13;101271.22;;;-0.49;72.25
17230;BME280;8731;50.364;8.958;2023-02-28T05:26:38;101276.28;;;-0.38;70.14
17230;BME280;8731;50.364;8.958;2023-02-28T05:31:01;101286.78;;;-0.29;71.00
17230;BME280;8731;50.364;8.958;2023-02-28T05:35:26;101289.09;;;-0.19;71.28
17230;BME280;8731;50.364;8.958;2023-02-28T05:39:48;101287.97;;;-0.16;70.55
17230;BME280;8731;50.364;8.958;2023-02-28T05:44:11;101278.88;;;-0.10;70.70
17230;BME280;8731;50.364;8.958;2023-02-28T05:48:34;101278.44;;;-0.07;70.60
17230;BME280;8731;50.364;8.958;2023-02-28T05:53:00;101278.66;;;-0.06;71.00
17230;BME280;8731;50.364;8.958;2023-02-28T05:57:22;101285.03;;;-0.02;71.38
17230;BME280;8731;50.364;8.958;2023-02-28T06:01:45;101286.44;;;0.02;71.97
17230;BME280;8731;50.364;8.958;2023-02-28T06:06:09;101283.03;;;0.01;71.78
17230;BME280;8731;50.364;8.958;2023-02-28T06:10:32;101286.91;;;0.10;71.50
17230;BME280;8731;50.364;8.958;2023-02-28T06:14:55;101293.50;;;0.10;70.96
17230;BME280;8731;50.364;8.958;2023-02-28T06:19:17;101296.91;;;0.10;71.13
17230;BME280;8731;50.364;8.958;2023-02-28T06:23:40;101289.63;;;0.12;70.74
17230;BME280;8731;50.364;8.958;2023-02-28T06:28:04;101293.50;;;0.10;71.47
17230;BME280;8731;50.364;8.958;2023-02-28T06:32:26;101301.22;;;0.17;70.21
17230;BME280;8731;50.364;8.958;2023-02-28T06:36:50;101304.19;;;0.09;72.48
17230;BME280;8731;50.364;8.958;2023-02-28T06:41:13;101309.66;;;0.12;71.82
17230;BME280;8731;50.364;8.958;2023-02-28T06:45:36;101309.88;;;0.19;71.62
17230;BME280;8731;50.364;8.958;2023-02-28T06:50:02;101315.34;;;0.22;70.97
17230;BME280;8731;50.364;8.958;2023-02-28T06:54:25;101320.59;;;0.23;72.02
17230;BME280;8731;50.364;8.958;2023-02-28T06:58:49;101319.47;;;0.33;71.25
17230;BME280;8731;50.364;8.958;2023-02-28T07:03:14;101319.25;;;0.42;70.96
17230;BME280;8731;50.364;8.958;2023-02-28T07:07:37;101324.97;;;0.52;72.05
17230;BME280;8731;50.364;8.958;2023-02-28T07:12:04;101328.84;;;0.84;70.70
17230;BME280;8731;50.364;8.958;2023-02-28T07:16:26;101332.25;;;1.01;68.81
17230;BME280;8731;50.364;8.958;2023-02-28T07:20:50;101329.44;;;1.50;68.02
17230;BME280;8731;50.364;8.958;2023-02-28T07:25:13;101319.16;;;2.06;66.60
17230;BME280;8731;50.364;8.958;2023-02-28T07:29:35;101322.44;;;2.64;64.26
17230;BME280;8731;50.364;8.958;2023-02-28T07:33:58;101313.91;;;2.98;63.10
17230;BME280;8731;50.364;8.958;2023-02-28T07:38:21;101305.53;;;3.53;61.69
17230;BME280;8731;50.364;8.958;2023-02-28T07:42:44;101310.22;;;3.99;59.44
17230;BME280;8731;50.364;8.958;2023-02-28T07:47:10;101302.13;;;4.38;59.34
17230;BME280;8731;50.364;8.958;2023-02-28T07:51:33;101306.31;;;4.50;55.20
17230;BME280;8731;50.364;8.958;2023-02-28T07:55:57;101303.38;;;4.73;53.72
17230;BME280;8731;50.364;8.958;2023-02-28T08:00:21;101311.09;;;4.36;52.04
17230;BME280;8731;50.364;8.958;2023-02-28T08:04:44;101306.75;;;4.35;51.53
17230;BME280;8731;50.364;8.958;2023-02-28T08:09:08;101315.81;;;4.97;50.26
17230;BME280;8731;50.364;8.958;2023-02-28T08:13:31;101309.84;;;4.71;50.29
17230;BME280;8731;50.364;8.958;2023-02-28T08:17:54;101306.22;;;5.58;50.07
17230;BME280;8731;50.364;8.958;2023-02-28T08:22:17;101310.41;;;5.44;48.57
17230;BME280;8731;50.364;8.958;2023-02-28T08:26:39;101321.91;;;5.17;48.73
17230;BME280;8731;50.364;8.958;2023-02-28T08:31:08;101306.22;;;5.58;47.02
17230;BME280;8731;50.364;8.958;2023-02-28T08:35:31;101309.53;;;5.64;48.03
17230;BME280;8731;50.364;8.958;2023-02-28T08:39:56;101299.81;;;5.67;47.53
17230;BME280;8731;50.364;8.958;2023-02-28T08:44:18;101310.53;;;5.71;46.83
17230;BME280;8731;50.364;8.958;2023-02-28T08:48:42;101307.13;;;6.03;46.58
17230;BME280;8731;50.364;8.958;2023-02-28T08:53:04;101308.63;;;6.28;47.82
17230;BME280;8731;50.364;8.958;2023-02-28T08:57:26;101303.50;;;6.61;47.78
17230;BME280;8731;50.364;8.958;2023-02-28T09:01:49;101312.84;;;6.35;46.99
17230;BME280;8731;50.364;8.958;2023-02-28T09:06:13;101308.75;;;6.62;45.85
17230;BME280;8731;50.364;8.958;2023-02-28T09:10:37;101315.88;;;6.72;44.81
17230;BME280;8731;50.364;8.958;2023-02-28T09:14:59;101316.19;;;6.41;44.21
17230;BME280;8731;50.364;8.958;2023-02-28T09:19:21;101326.53;;;6.50;43.26
17230;BME280;8731;50.364;8.958;2023-02-28T09:23:46;101308.72;;;7.36;45.09
17230;BME280;8731;50.364;8.958;2023-02-28T09:28:10;101304.66;;;6.97;43.58
17230;BME280;8731;50.364;8.958;2023-02-28T09:32:32;101300.94;;;6.81;44.63
17230;BME280;8731;50.364;8.958;2023-02-28T09:36:55;101304.53;;;6.75;42.51
17230;BME280;8731;50.364;8.958;2023-02-28T09:41:20;101303.13;;;6.85;42.59
17230;BME280;8731;50.364;8.958;2023-02-28T09:45:48;101300.44;;;7.10;41.88
17230;BME280;8731;50.364;8.958;2023-02-28T09:50:28;101295.06;;;7.62;41.00
17230;BME280;8731;50.364;8.958;2023-02-28T09:54:53;101291.31;;;7.80;41.70
17230;BME280;8731;50.364;8.958;2023-02-28T09:59:29;101294.88;;;7.61;41.84
17230;BME280;8731;50.364;8.958;2023-02-28T10:04:04;101293.94;;;8.23;41.59
17230;BME280;8731;50.364;8.958;2023-02-28T10:08:38;101286.91;;;7.17;41.20
17230;BME280;8731;50.364;8.958;2023-02-28T10:13:13;101282.91;;;8.29;42.47
17230;BME280;8731;50.364;8.958;2023-02-28T10:17:42;101288.75;;;8.36;40.12
17230;BME280;8731;50.364;8.958;2023-02-28T10:22:12;101299.94;;;7.20;40.08
17230;BME280;8731;50.364;8.958;2023-02-28T10:26:38;101291.44;;;8.73;40.10
17230;BME280;8731;50.364;8.958;2023-02-28T10:31:02;101281.19;;;9.22;43.24
17230;BME280;8731;50.364;8.958;2023-02-28T10:35:26;101289.16;;;9.33;39.86
17230;BME280;8731;50.364;8.958;2023-02-28T10:39:48;101288.34;;;8.82;39.33
17230;BME280;8731;50.364;8.958;2023-02-28T10:44:19;101284.41;;;10.10;40.41
17230;BME280;8731;50.364;8.958;2023-02-28T10:48:44;101281.34;;;9.31;37.79
17230;BME280;8731;50.364;8.958;2023-02-28T10:53:30;101290.72;;;8.74;38.50
17230;BME280;8731;50.364;8.958;2023-02-28T10:57:54;101278.03;;;8.81;37.77
17230;BME280;8731;50.364;8.958;2023-02-28T11:02:32;101277.16;;;9.32;37.16
17230;BME280;8731;50.364;8.958;2023-02-28T11:06:58;101273.50;;;8.78;38.23
17230;BME280;8731;50.364;8.958;2023-02-28T11:11:25;101273.34;;;9.35;37.21
17230;BME280;8731;50.364;8.958;2023-02-28T11:15:51;101277.22;;;7.82;39.40
17230;BME280;8731;50.364;8.958;2023-02-28T11:20:21;101280.03;;;8.55;38.02
17230;BME280;8731;50.364;8.958;2023-02-28T11:24:48;101272.81;;;9.68;39.72
17230;BME280;8731;50.364;8.958;2023-02-28T11:29:18;101272.56;;;8.99;38.12
17230;BME280;8731;50.364;8.958;2023-02-28T11:33:43;101277.44;;;8.19;38.68
17230;BME280;8731;50.364;8.958;2023-02-28T11:38:09;101264.25;;;9.37;39.64
17230;BME280;8731;50.364;8.958;2023-02-28T11:42:45;101246.53;;;10.66;37.44
17230;BME280;8731;50.364;8.958;2023-02-28T11:47:27;101249.97;;;9.98;37.89
17230;BME280;8731;50.364;8.958;2023-02-28T11:51:58;101246.38;;;9.14;37.97
17230;BME280;8731;50.364;8.958;2023-02-28T11:56:26;101237.63;;;9.64;37.97
17230;BME280;8731;50.364;8.958;2023-02-28T12:01:03;101243.13;;;10.12;40.04
17230;BME280;8731;50.364;8.958;2023-02-28T12:05:43;101241.06;;;9.71;37.93
17230;BME280;8731;50.364;8.958;2023-02-28T12:10:17;101238.13;;;9.75;36.49
17230;BME280;8731;50.364;8.958;2023-02-28T12:14:59;101236.16;;;8.49;37.81
17230;BME280;8731;50.364;8.958;2023-02-28T12:19:48;101234.84;;;9.69;38.34
17230;BME280;8731;50.364;8.958;2023-02-28T12:24:36;101241.16;;;9.43;37.78
17230;BME280;8731;50.364;8.958;2023-02-28T12:29:23;101239.00;;;9.39;37.32
17230;BME280;8731;50.364;8.958;2023-02-28T12:33:51;101227.81;;;9.90;38.18
17230;BME280;8731;50.364;8.958;2023-02-28T12:38:19;101221.09;;;10.97;38.68
17230;BME280;8731;50.364;8.958;2023-02-28T12:42:48;101216.16;;;10.83;36.22
17230;BME280;8731;50.364;8.958;2023-02-28T12:47:15;101226.53;;;9.93;39.16
17230;BME280;8731;50.364;8.958;2023-02-28T12:51:39;101224.69;;;8.81;39.37
17230;BME280;8731;50.364;8.958;2023-02-28T12:56:12;101217.19;;;9.78;38.64
17230;BME280;8731;50.364;8.958;2023-02-28T13:00:49;101226.34;;;8.66;38.21
17230;BME280;8731;50.364;8.958;2023-02-28T13:05:43;101221.03;;;9.74;41.20
17230;BME280;8731;50.364;8.958;2023-02-28T13:10:15;101218.72;;;9.92;37.15
17230;BME280;8731;50.364;8.958;2023-02-28T13:14:39;101224.53;;;8.65;38.84
17230;BME280;8731;50.364;8.958;2023-02-28T13:19:10;101218.13;;;8.90;39.60
17230;BME280;8731;50.364;8.958;2023-02-28T13:23:58;101207.28;;;9.65;39.04
17230;BME280;8731;50.364;8.958;2023-02-28T13:28:57;101210.31;;;9.03;40.02
17230;BME280;8731;50.364;8.958;2023-02-28T13:33:24;101212.72;;;8.87;40.00
17230;BME280;8731;50.364;8.958;2023-02-28T13:37:49;101200.53;;;8.91;42.82
17230;BME280;8731;50.364;8.958;2023-02-28T13:42:23;101204.06;;;8.21;41.35
17230;BME280;8731;50.364;8.958;2023-02-28T13:47:21;101211.38;;;7.48;41.09
17230;BME280;8731;50.364;8.958;2023-02-28T13:51:51;101213.72;;;7.39;41.62
17230;BME280;8731;50.364;8.958;2023-02-28T13:56:29;101206.97;;;7.26;41.95
17230;BME280;8731;50.364;8.958;2023-02-28T14:01:21;101202.25;;;7.98;43.98
17230;BME280;8731;50.364;8.958;2023-02-28T14:06:19;101200.97;;;6.84;43.60
17230;BME280;8731;50.364;8.958;2023-02-28T14:10:48;101195.16;;;7.12;44.60
17230;BME280;8731;50.364;8.958;2023-02-28T14:15:47;101193.38;;;6.84;44.14
17230;BME280;8731;50.364;8.958;2023-02-28T14:20:26;101198.19;;;6.68;44.21
17230;BME280;8731;50.364;8.958;2023-02-28T14:25:08;101200.81;;;6.56;44.89
17230;BME280;8731;50.364;8.958;2023-02-28T14:30:03;101192.28;;;6.48;44.46
17230;BME280;8731;50.364;8.958;2023-02-28T14:34:52;101182.22;;;6.62;44.57
17230;BME280;8731;50.364;8.958;2023-02-28T14:39:22;101187.91;;;6.74;44.90
17230;BME280;8731;50.364;8.958;2023-02-28T14:43:53;101182.19;;;6.55;44.30
17230;BME280;8731;50.364;8.958;2023-02-28T14:48:17;101176.44;;;6.29;45.87
17230;BME280;8731;50.364;8.958;2023-02-28T14:52:43;101180.41;;;6.07;45.55
17230;BME280;8731;50.364;8.958;2023-02-28T14:57:05;101175.25;;;6.40;46.11
17230;BME280;8731;50.364;8.958;2023-02-28T15:01:41;101170.59;;;6.23;44.98
17230;BME280;8731;50.364;8.958;2023-02-28T15:06:05;101155.56;;;6.78;45.07
17230;BME280;8731;50.364;8.958;2023-02-28T15:10:35;101163.53;;;6.82;44.50
17230;BME280;8731;50.364;8.958;2023-02-28T15:14:57;101157.56;;;6.40;44.96
17230;BME280;8731;50.364;8.958;2023-02-28T15:19:22;101162.13;;;6.03;45.71
17230;BME280;8731;50.364;8.958;2023-02-28T15:23:50;101175.81;;;6.18;45.62
17230;BME280;8731;50.364;8.958;2023-02-28T15:28:19;101171.84;;;6.20;46.23
17230;BME280;8731;50.364;8.958;2023-02-28T15:32:43;101176.19;;;6.21;45.40
17230;BME280;8731;50.364;8.958;2023-02-28T15:41:51;101184.31;;;5.66;45.59
17230;BME280;8731;50.364;8.958;2023-02-28T15:46:15;101174.72;;;5.96;46.79
17230;BME280;8731;50.364;8.958;2023-02-28T15:50:37;101175.34;;;6.07;46.58
17230;BME280;8731;50.364;8.958;2023-02-28T15:55:08;101168.94;;;5.77;46.41
17230;BME280;8731;50.364;8.958;2023-02-28T15:59:33;101177.41;;;5.58;46.30
17230;BME280;8731;50.364;8.958;2023-02-28T16:04:01;101170.19;;;5.93;46.54
17230;BME280;8731;50.364;8.958;2023-02-28T16:08:25;101165.88;;;5.79;47.03
17230;BME280;8731;50.364;8.958;2023-02-28T16:12:47;101173.22;;;5.91;47.33
17230;BME280;8731;50.364;8.958;2023-02-28T16:17:18;101179.19;;;5.91;47.17
17230;BME280;8731;50.364;8.958;2023-02-28T16:21:44;101176.44;;;5.70;47.13
17230;BME280;8731;50.364;8.958;2023-02-28T16:26:08;101179.22;;;5.78;47.18
17230;BME280;8731;50.364;8.958;2023-02-28T16:30:35;101178.38;;;5.85;47.13
17230;BME280;8731;50.364;8.958;2023-02-28T16:34:58;101184.47;;;5.80;47.28
17230;BME280;8731;50.364;8.958;2023-02-28T16:39:21;101189.47;;;5.73;47.55
17230;BME280;8731;50.364;8.958;2023-02-28T16:43:46;101204.72;;;5.67;47.85
17230;BME280;8731;50.364;8.958;2023-02-28T16:48:13;101205.03;;;5.63;48.63
17230;BME280;8731;50.364;8.958;2023-02-28T16:52:36;101207.50;;;5.56;48.89
17230;BME280;8731;50.364;8.958;2023-02-28T16:57:00;101211.22;;;5.33;49.47
17230;BME280;8731;50.364;8.958;2023-02-28T17:01:22;101213.94;;;5.34;50.08
17230;BME280;8731;50.364;8.958;2023-02-28T17:05:47;101216.00;;;5.11;49.92
17230;BME280;8731;50.364;8.958;2023-02-28T17:10:13;101222.06;;;5.06;49.91
17230;BME280;8731;50.364;8.958;2023-02-28T17:14:45;101226.00;;;4.91;50.99
17230;BME280;8731;50.364;8.958;2023-02-28T17:19:11;101241.25;;;4.86;50.50
17230;BME280;8731;50.364;8.958;2023-02-28T17:23:34;101235.00;;;4.77;50.84
17230;BME280;8731;50.364;8.958;2023-02-28T17:27:56;101242.16;;;4.61;51.20
17230;BME280;8731;50.364;8.958;2023-02-28T17:32:20;101248.38;;;4.45;51.26
17230;BME280;8731;50.364;8.958;2023-02-28T17:36:42;101260.56;;;4.29;51.32
17230;BME280;8731;50.364;8.958;2023-02-28T17:41:05;101256.50;;;4.24;52.09
17230;BME280;8731;50.364;8.958;2023-02-28T17:45:27;101256.19;;;4.15;52.08
17230;BME280;8731;50.364;8.958;2023-02-28T17:49:51;101266.84;;;4.07;53.09
17230;BME280;8731;50.364;8.958;2023-02-28T17:54:13;101267.47;;;3.93;53.62
17230;BME280;8731;50.364;8.958;2023-02-28T17:58:36;101260.72;;;3.87;53.72
17230;BME280;8731;50.364;8.958;2023-02-28T18:02:58;101266.34;;;3.79;54.33
17230;BME280;8731;50.364;8.958;2023-02-28T18:07:23;101268.00;;;3.73;53.73
17230;BME280;8731;50.364;8.958;2023-02-28T18:11:46;101270.94;;;3.76;53.43
17230;BME280;8731;50.364;8.958;2023-02-28T18:16:10;101280.88;;;3.68;53.13
17230;BME280;8731;50.364;8.958;2023-02-28T18:20:32;101276.91;;;3.58;54.92
17230;BME280;8731;50.364;8.958;2023-02-28T18:24:56;101282.75;;;3.46;54.64
17230;BME280;8731;50.364;8.958;2023-02-28T18:29:20;101279.41;;;3.39;54.69
17230;BME280;8731;50.364;8.958;2023-02-28T18:33:47;101293.38;;;3.37;55.44
17230;BME280;8731;50.364;8.958;2023-02-28T18:38:13;101283.63;;;3.28;55.84
17230;BME280;8731;50.364;8.958;2023-02-28T18:42:37;101284.81;;;3.24;55.20
17230;BME280;8731;50.364;8.958;2023-02-28T18:47:00;101278.59;;;3.10;56.16
17230;BME280;8731;50.364;8.958;2023-02-28T18:51:24;101277.00;;;3.04;56.21
17230;BME280;8731;50.364;8.958;2023-02-28T18:55:47;101275.25;;;2.98;57.23
17230;BME280;8731;50.364;8.958;2023-02-28T19:00:12;101276.94;;;2.92;56.80
17230;BME280;8731;50.364;8.958;2023-02-28T19:04:39;101282.94;;;2.87;56.84
17230;BME280;8731;50.364;8.958;2023-02-28T19:09:02;101283.41;;;2.84;57.27
17230;BME280;8731;50.364;8.958;2023-02-28T19:13:25;101282.09;;;2.75;58.10
17230;BME280;8731;50.364;8.958;2023-02-28T19:17:49;101280.56;;;2.70;56.92
17230;BME280;8731;50.364;8.958;2023-02-28T19:22:11;101287.72;;;2.61;58.07
17230;BME280;8731;50.364;8.958;2023-02-28T19:26:33;101287.06;;;2.57;58.69
17230;BME280;8731;50.364;8.958;2023-02-28T19:30:56;101289.13;;;2.54;59.06
17230;BME280;8731;50.364;8.958;2023-02-28T19:35:19;101294.25;;;2.42;59.32
17230;BME280;8731;50.364;8.958;2023-02-28T19:39:42;101299.28;;;2.42;59.58
17230;BME280;8731;50.364;8.958;2023-02-28T19:44:05;101294.75;;;2.40;59.30
17230;BME280;8731;50.364;8.958;2023-02-28T19:48:27;101297.47;;;2.36;59.50
17230;BME280;8731;50.364;8.958;2023-02-28T19:52:51;101301.16;;;2.32;59.10
17230;BME280;8731;50.364;8.958;2023-02-28T19:57:13;101303.50;;;2.25;60.32
17230;BME280;8731;50.364;8.958;2023-02-28T20:01:36;101299.81;;;2.29;59.67
17230;BME280;8731;50.364;8.958;2023-02-28T20:05:59;101304.19;;;2.24;59.80
17230;BME280;8731;50.364;8.958;2023-02-28T20:10:24;101303.78;;;2.21;59.12
17230;BME280;8731;50.364;8.958;2023-02-28T20:14:46;101299.91;;;2.12;60.72
17230;BME280;8731;50.364;8.958;2023-02-28T20:19:09;101298.19;;;2.00;61.02
17230;BME280;8731;50.364;8.958;2023-02-28T20:23:32;101295.41;;;2.04;61.24
17230;BME280;8731;50.364;8.958;2023-02-28T20:27:56;101298.22;;;1.94;60.61
17230;BME280;8731;50.364;8.958;2023-02-28T20:32:18;101286.78;;;1.96;60.58
17230;BME280;8731;50.364;8.958;2023-02-28T20:36:40;101295.50;;;1.93;61.05
17230;BME280;8731;50.364;8.958;2023-02-28T20:41:03;101286.34;;;1.88;61.19
17230;BME280;8731;50.364;8.958;2023-02-28T20:45:27;101284.09;;;1.83;62.06
17230;BME280;8731;50.364;8.958;2023-02-28T20:49:50;101288.22;;;1.83;61.31
17230;BME280;8731;50.364;8.958;2023-02-28T20:54:14;101274.53;;;1.81;61.64
17230;BME280;8731;50.364;8.958;2023-02-28T20:58:37;101288.66;;;1.86;61.25
17230;BME280;8731;50.364;8.958;2023-02-28T21:03:01;101284.34;;;1.79;61.01
17230;BME280;8731;50.364;8.958;2023-02-28T21:07:23;101279.41;;;1.68;61.11
17230;BME280;8731;50.364;8.958;2023-02-28T21:11:47;101282.81;;;1.63;62.54
17230;BME280;8731;50.364;8.958;2023-02-28T21:16:15;101277.81;;;1.63;62.56
17230;BME280;8731;50.364;8.958;2023-02-28T21:20:42;101283.81;;;1.47;62.64
17230;BME280;8731;50.364;8.958;2023-02-28T21:25:05;101283.81;;;1.47;63.50
17230;BME280;8731;50.364;8.958;2023-02-28T21:29:27;101285.19;;;1.50;62.31
17230;BME280;8731;50.364;8.958;2023-02-28T21:33:51;101286.59;;;1.43;62.57
17230;BME280;8731;50.364;8.958;2023-02-28T21:38:15;101280.19;;;1.45;62.52
17230;BME280;8731;50.364;8.958;2023-02-28T21:42:38;101291.34;;;1.41;63.42
17230;BME280;8731;50.364;8.958;2023-02-28T21:47:00;101287.03;;;1.35;63.84
17230;BME280;8731;50.364;8.958;2023-02-28T21:51:24;101289.09;;;1.32;63.91
17230;BME280;8731;50.364;8.958;2023-02-28T21:55:49;101292.06;;;1.35;64.27
17230;BME280;8731;50.364;8.958;2023-02-28T22:00:12;101297.09;;;1.35;63.79
17230;BME280;8731;50.364;8.958;2023-02-28T22:04:37;101300.28;;;1.28;64.19
17230;BME280;8731;50.364;8.958;2023-02-28T22:09:02;101307.13;;;1.29;64.27
17230;BME280;8731;50.364;8.958;2023-02-28T22:13:27;101304.84;;;1.31;63.45
17230;BME280;8731;50.364;8.958;2023-02-28T22:17:49;101288.66;;;1.34;63.47
17230;BME280;8731;50.364;8.958;2023-02-28T22:22:11;101301.91;;;1.28;63.48
17230;BME280;8731;50.364;8.958;2023-02-28T22:26:35;101299.38;;;1.28;63.75
17230;BME280;8731;50.364;8.958;2023-02-28T22:30:59;101301.69;;;1.20;63.06
17230;BME280;8731;50.364;8.958;2023-02-28T22:35:31;101290.06;;;1.21;64.30
17230;BME280;8731;50.364;8.958;2023-02-28T22:39:54;101303.53;;;1.21;63.66
17230;BME280;8731;50.364;8.958;2023-02-28T22:44:16;101297.59;;;1.21;63.95
17230;BME280;8731;50.364;8.958;2023-02-28T22:48:40;101305.56;;;1.18;64.94
17230;BME280;8731;50.364;8.958;2023-02-28T22:53:02;101307.41;;;1.19;64.61
17230;BME280;8731;50.364;8.958;2023-02-28T22:57:24;101304.19;;;1.20;64.01
17230;BME280;8731;50.364;8.958;2023-02-28T23:01:46;101303.97;;;1.13;64.86
17230;BME280;8731;50.364;8.958;2023-02-28T23:06:14;101309.66;;;1.12;64.88
17230;BME280;8731;50.364;8.958;2023-02-28T23:10:40;101307.88;;;1.06;64.33
17230;BME280;8731;50.364;8.958;2023-02-28T23:15:04;101298.75;;;1.06;64.66
17230;BME280;8731;50.364;8.958;2023-02-28T23:19:29;101308.78;;;1.01;64.86
17230;BME280;8731;50.364;8.958;2023-02-28T23:23:53;101307.19;;;1.01;65.45
17230;BME280;8731;50.364;8.958;2023-02-28T23:28:15;101310.84;;;1.03;64.84
17230;BME280;8731;50.364;8.958;2023-02-28T23:32:38;101306.50;;;1.02;66.09
17230;BME280;8731;50.364;8.958;2023-02-28T23:37:01;101311.97;;;1.00;65.17
17230;BME280;8731;50.364;8.958;2023-02-28T23:41:25;101306.75;;;0.98;65.82
17230;BME280;8731;50.364;8.958;2023-02-28T23:45:53;101300.38;;;1.00;65.18
17230;BME280;8731;50.364;8.958;2023-02-28T23:50:16;101300.81;;;1.03;66.01
17230;BME280;8731;50.364;8.958;2023-02-28T23:54:38;101299.91;;;1.03;65.18